Triumph — WDC9555 — position and weather

sailwx.info

Track history (hours):
 
Tides and Currents Weather Stations Pressure Air Temp Water Temp Dewpoint Dewpoint Depression Visibility Wind Speed Wind Dir Waves Ship Positions

Triumph

Owner: WESTERN TOWBOAT CO, SEATTLE, WA. More information available from US FCC via Universal Licensing System and Coast Guard Vessel Documentation Center.

Last reported at 2015-Aug-05 05:33 UTC. Time now 2015-Aug-05 06:26 UTC.
Position N 48°56' W 123°05'.

Length 24 m; draft 3 m.

Type: Tow > 200 m length. MMSI: 367103880.

Date/timePositionNaut miles runAvg speedWind from/ knotsBaromVisibWave heightAir tempDewpointWater temp
2015-Aug-05 05:33N 48°56' W 123°05'10 9.5
2015-Aug-05 04:33N 48°49' W 122°54'10 9.8
2015-Aug-05 03:33N 48°43' W 122°44'611.2
2015-Aug-05 02:59N 48°36' W 122°45'512.6
2015-Aug-05 02:33N 48°31' W 122°44'32 7.5
2015-Aug-04 22:19N 47°59' W 122°35'3 9.1
2015-Aug-04 21:59N 47°57' W 122°32'4 9.2
2015-Aug-04 21:33N 47°54' W 122°28'2 9.8
2015-Aug-04 21:20N 47°52' W 122°28'7 9.6
2015-Aug-04 20:33N 47°45' W 122°26'1 9.9
2015-Aug-04 20:30N 47°44' W 122°26'8 8.6
2015-Aug-04 19:33N 47°36' W 122°22'0 6.7
2015-Aug-04 19:30N 47°36' W 122°22'4 4.4
2015-Aug-04 18:33N 47°39' W 122°26'110.2
2015-Aug-04 18:30N 47°40' W 122°27'3 3.1
2015-Aug-04 17:33N 47°39' W 122°22'0 4.7
2015-Aug-04 17:30N 47°39' W 122°22'  
2015-Jul-28 22:35N 47°39' W 122°22'0 0.0
2015-Jul-28 22:34N 47°39' W 122°22'0 3.6
2015-Jul-28 22:30N 47°39' W 122°22'1 1.2
2015-Jul-28 21:33N 47°40' W 122°24'0 0.0
2015-Jul-28 21:30N 47°40' W 122°24'3 3.7
2015-Jul-28 20:33N 47°36' W 122°24'1 9.3
2015-Jul-28 20:30N 47°36' W 122°23'5 5.1
2015-Jul-28 19:34N 47°39' W 122°28'0 7.8
2015-Jul-28 19:30N 47°40' W 122°28'7 7.8
2015-Jul-28 18:34N 47°47' W 122°27'1 7.8
2015-Jul-28 18:30N 47°48' W 122°27'7 7.6
2015-Jul-28 17:33N 47°54' W 122°30'1 7.2
2015-Jul-28 17:29N 47°55' W 122°30'7 7.0
2015-Jul-28 16:33N 47°59' W 122°37'12 5.2
2015-Jul-28 14:15N 48°10' W 122°46'12 5.5
2015-Jul-28 12:07N 48°21' W 122°46'5 8.3
2015-Jul-28 11:33N 48°26' W 122°45'7 8.7
2015-Jul-28 10:43N 48°33' W 122°45'1 8.8
2015-Jul-28 10:33N 48°35' W 122°45'8 7.6
2015-Jul-28 09:33N 48°42' W 122°45'7 7.1
2015-Jul-28 08:32N 48°47' W 122°53'8 7.7
2015-Jul-28 07:33N 48°52' W 123°02'8 7.9
2015-Jul-28 06:33N 48°57' W 123°12'7 7.4
2015-Jul-28 05:33N 49°01' W 123°20'8 7.6
2015-Jul-28 04:33N 49°07' W 123°28'7 7.2
2015-Jul-28 03:34N 49°11' W 123°37'8 7.7
2015-Jul-28 02:33N 49°16' W 123°46'8 7.7
2015-Jul-28 01:33N 49°21' W 123°55'7 7.0
2015-Jul-28 00:33N 49°26' W 124°03'7 7.3
2015-Jul-27 23:33N 49°31' W 124°12'7 7.4
2015-Jul-27 22:33N 49°34' W 124°22'7 7.2
2015-Jul-27 21:33N 49°38' W 124°31'7 7.4
2015-Jul-27 20:33N 49°42' W 124°40'8 7.4
2015-Jul-27 19:31N 49°47' W 124°50'7 6.7
2015-Jul-27 18:27N 49°52' W 124°58'6 7.1
2015-Jul-27 17:33N 49°56' W 125°06'15 7.4
2015-Jul-27 15:29N 50°08' W 125°21'5 4.9
2015-Jul-27 14:33N 50°12' W 125°22'3 2.3
2015-Jul-27 13:04N 50°15' W 125°23'3 4.6
2015-Jul-27 12:21N 50°12' W 125°22'2 1.9
2015-Jul-27 11:33N 50°14' W 125°23'3 2.8
2015-Jul-27 10:30N 50°17' W 125°24'40 5.5
2015-Jul-27 03:22N 50°30' W 126°23'9 7.2
2015-Jul-27 02:06N 50°31' W 126°37'10 6.5
2015-Jul-27 00:33N 50°38' W 126°48'15 7.5
2015-Jul-26 22:33N 50°46' W 127°08'7 7.2
2015-Jul-26 21:33N 50°50' W 127°17'3 3.3
2015-Jul-26 20:33N 50°53' W 127°20'1 0.5
2015-Jul-26 19:33N 50°52' W 127°20'5 4.7
2015-Jul-26 18:33N 50°50' W 127°13'75 8.1
2015-Jul-26 09:13N 50°19' W 125°25'6 8.6
2015-Jul-26 08:30N 50°13' W 125°22'7 7.1
2015-Jul-26 07:32N 50°07' W 125°18'  
Track history (hours):
 
Tides and Currents Weather Stations Pressure Air Temp Water Temp Dewpoint Dewpoint Depression Visibility Wind Speed Wind Dir Waves Ship Positions

Triumph

Owner: WESTERN TOWBOAT CO, SEATTLE, WA. More information available from US FCC via Universal Licensing System and Coast Guard Vessel Documentation Center.

Last reported at 2015-Aug-05 05:33 UTC. Time now 2015-Aug-05 06:26 UTC.
Position N 48°56' W 123°05'.

Length 24 m; draft 3 m.

Type: Tow > 200 m length. MMSI: 367103880.

Date/timePositionNaut miles runAvg speedWind from/ knotsBaromVisibWave heightAir tempDewpointWater temp
2015-Aug-05 05:33N 48°56' W 123°05'10 9.5
2015-Aug-05 04:33N 48°49' W 122°54'10 9.8
2015-Aug-05 03:33N 48°43' W 122°44'611.2
2015-Aug-05 02:59N 48°36' W 122°45'512.6
2015-Aug-05 02:33N 48°31' W 122°44'32 7.5
2015-Aug-04 22:19N 47°59' W 122°35'3 9.1
2015-Aug-04 21:59N 47°57' W 122°32'4 9.2
2015-Aug-04 21:33N 47°54' W 122°28'2 9.8
2015-Aug-04 21:20N 47°52' W 122°28'7 9.6
2015-Aug-04 20:33N 47°45' W 122°26'1 9.9
2015-Aug-04 20:30N 47°44' W 122°26'8 8.6
2015-Aug-04 19:33N 47°36' W 122°22'0 6.7
2015-Aug-04 19:30N 47°36' W 122°22'4 4.4
2015-Aug-04 18:33N 47°39' W 122°26'110.2
2015-Aug-04 18:30N 47°40' W 122°27'3 3.1
2015-Aug-04 17:33N 47°39' W 122°22'0 4.7
2015-Aug-04 17:30N 47°39' W 122°22'  
2015-Jul-28 22:35N 47°39' W 122°22'0 0.0
2015-Jul-28 22:34N 47°39' W 122°22'0 3.6
2015-Jul-28 22:30N 47°39' W 122°22'1 1.2
2015-Jul-28 21:33N 47°40' W 122°24'0 0.0
2015-Jul-28 21:30N 47°40' W 122°24'3 3.7
2015-Jul-28 20:33N 47°36' W 122°24'1 9.3
2015-Jul-28 20:30N 47°36' W 122°23'5 5.1
2015-Jul-28 19:34N 47°39' W 122°28'0 7.8
2015-Jul-28 19:30N 47°40' W 122°28'7 7.8
2015-Jul-28 18:34N 47°47' W 122°27'1 7.8
2015-Jul-28 18:30N 47°48' W 122°27'7 7.6
2015-Jul-28 17:33N 47°54' W 122°30'1 7.2
2015-Jul-28 17:29N 47°55' W 122°30'7 7.0
2015-Jul-28 16:33N 47°59' W 122°37'12 5.2
2015-Jul-28 14:15N 48°10' W 122°46'12 5.5
2015-Jul-28 12:07N 48°21' W 122°46'5 8.3
2015-Jul-28 11:33N 48°26' W 122°45'7 8.7
2015-Jul-28 10:43N 48°33' W 122°45'1 8.8
2015-Jul-28 10:33N 48°35' W 122°45'8 7.6
2015-Jul-28 09:33N 48°42' W 122°45'7 7.1
2015-Jul-28 08:32N 48°47' W 122°53'8 7.7
2015-Jul-28 07:33N 48°52' W 123°02'8 7.9
2015-Jul-28 06:33N 48°57' W 123°12'7 7.4
2015-Jul-28 05:33N 49°01' W 123°20'8 7.6
2015-Jul-28 04:33N 49°07' W 123°28'7 7.2
2015-Jul-28 03:34N 49°11' W 123°37'8 7.7
2015-Jul-28 02:33N 49°16' W 123°46'8 7.7
2015-Jul-28 01:33N 49°21' W 123°55'7 7.0
2015-Jul-28 00:33N 49°26' W 124°03'7 7.3
2015-Jul-27 23:33N 49°31' W 124°12'7 7.4
2015-Jul-27 22:33N 49°34' W 124°22'7 7.2
2015-Jul-27 21:33N 49°38' W 124°31'7 7.4
2015-Jul-27 20:33N 49°42' W 124°40'8 7.4
2015-Jul-27 19:31N 49°47' W 124°50'7 6.7
2015-Jul-27 18:27N 49°52' W 124°58'6 7.1
2015-Jul-27 17:33N 49°56' W 125°06'15 7.4
2015-Jul-27 15:29N 50°08' W 125°21'5 4.9
2015-Jul-27 14:33N 50°12' W 125°22'3 2.3
2015-Jul-27 13:04N 50°15' W 125°23'3 4.6
2015-Jul-27 12:21N 50°12' W 125°22'2 1.9
2015-Jul-27 11:33N 50°14' W 125°23'3 2.8
2015-Jul-27 10:30N 50°17' W 125°24'40 5.5
2015-Jul-27 03:22N 50°30' W 126°23'9 7.2
2015-Jul-27 02:06N 50°31' W 126°37'10 6.5
2015-Jul-27 00:33N 50°38' W 126°48'15 7.5
2015-Jul-26 22:33N 50°46' W 127°08'7 7.2
2015-Jul-26 21:33N 50°50' W 127°17'3 3.3
2015-Jul-26 20:33N 50°53' W 127°20'1 0.5
2015-Jul-26 19:33N 50°52' W 127°20'5 4.7
2015-Jul-26 18:33N 50°50' W 127°13'75 8.1
2015-Jul-26 09:13N 50°19' W 125°25'6 8.6
2015-Jul-26 08:30N 50°13' W 125°22'7 7.1
2015-Jul-26 07:32N 50°07' W 125°18'  

Dump ship's entire track history